SKW5537 KDFW-KLIT
Flight info
| Callsign | SKW5537 |
|---|---|
| Flight time | 0h 42m |
| Altitude | 31000 |
| Route | ZACHH4 BSKAT LIT |
| Aircraft | CRJ7/M-SDFGIRWY/S |
Departure
| Time | 2026-05-07 04:15 |
|---|---|
| Airport | Dallas Fort Worth International Airport (KDFW) |
Arrival
| Time | 2026-05-07 04:57 |
|---|---|
| Airport | Bill & Hillary Clinton National Airport/Adams Field (KLIT) |
| Time | Latitude | Longitude | Altitude | Speed | Heading |
|---|---|---|---|---|---|
| 2026-05-07 03:46 | 32.88744 | -97.03536 | 614 ft | 0 kts | 98° |
| 2026-05-07 04:03 | 32.88745 | -97.03544 | 614 ft | 3 kts | 98° |
| 2026-05-07 04:04 | 32.88748 | -97.03566 | 620 ft | 3 kts | 98° |
| 2026-05-07 04:04 | 32.88750 | -97.03588 | 614 ft | 3 kts | 98° |
| 2026-05-07 04:04 | 32.88752 | -97.03601 | 625 ft | 0 kts | 98° |
| 2026-05-07 04:07 | 32.88752 | -97.03600 | 625 ft | 1 kts | 99° |
| 2026-05-07 04:07 | 32.88750 | -97.03596 | 618 ft | 0 kts | 130° |
| 2026-05-07 04:07 | 32.88741 | -97.03591 | 614 ft | 5 kts | 158° |
| 2026-05-07 04:08 | 32.88701 | -97.03573 | 619 ft | 7 kts | 160° |
| 2026-05-07 04:08 | 32.88650 | -97.03565 | 629 ft | 8 kts | 183° |
| 2026-05-07 04:08 | 32.88609 | -97.03536 | 626 ft | 8 kts | 114° |
| 2026-05-07 04:08 | 32.88598 | -97.03471 | 614 ft | 9 kts | 92° |
| 2026-05-07 04:09 | 32.88598 | -97.03397 | 614 ft | 9 kts | 89° |
| 2026-05-07 04:09 | 32.88576 | -97.03332 | 614 ft | 9 kts | 160° |
| 2026-05-07 04:09 | 32.88512 | -97.03316 | 619 ft | 10 kts | 152° |
| 2026-05-07 04:09 | 32.88445 | -97.03287 | 623 ft | 11 kts | 176° |
| 2026-05-07 04:10 | 32.88366 | -97.03286 | 617 ft | 12 kts | 180° |
| 2026-05-07 04:10 | 32.88279 | -97.03286 | 619 ft | 13 kts | 180° |
| 2026-05-07 04:10 | 32.88184 | -97.03287 | 614 ft | 14 kts | 180° |
| 2026-05-07 04:10 | 32.88088 | -97.03288 | 620 ft | 13 kts | 180° |
| 2026-05-07 04:11 | 32.88001 | -97.03283 | 617 ft | 12 kts | 160° |
| 2026-05-07 04:11 | 32.87974 | -97.03203 | 625 ft | 12 kts | 90° |
| 2026-05-07 04:11 | 32.87973 | -97.03135 | 614 ft | 1 kts | 91° |
| 2026-05-07 04:11 | 32.87973 | -97.03133 | 621 ft | 0 kts | 91° |
| 2026-05-07 04:13 | 32.87973 | -97.03128 | 620 ft | 3 kts | 91° |
| 2026-05-07 04:13 | 32.87972 | -97.03089 | 619 ft | 9 kts | 91° |
| 2026-05-07 04:13 | 32.87991 | -97.03018 | 618 ft | 10 kts | 32° |
| 2026-05-07 04:14 | 32.88063 | -97.03008 | 621 ft | 12 kts | 359° |
| 2026-05-07 04:14 | 32.88329 | -97.03005 | 619 ft | 68 kts | 360° |
| 2026-05-07 04:14 | 32.88984 | -97.03005 | 617 ft | 118 kts | 1° |
| 2026-05-07 04:14 | 32.89894 | -97.03007 | 799 ft | 135 kts | 1° |
| 2026-05-07 04:15 | 32.90849 | -97.03050 | 1241 ft | 141 kts | 0° |
| 2026-05-07 04:15 | 32.91826 | -97.03083 | 1788 ft | 138 kts | 2° |
| 2026-05-07 04:15 | 32.92783 | -97.03101 | 2343 ft | 139 kts | 4° |
| 2026-05-07 04:15 | 32.93832 | -97.03074 | 2725 ft | 160 kts | 6° |
| 2026-05-07 04:16 | 32.94944 | -97.03012 | 3379 ft | 164 kts | 5° |
| 2026-05-07 04:16 | 32.96137 | -97.02929 | 3871 ft | 179 kts | 5° |
| 2026-05-07 04:16 | 32.97412 | -97.02829 | 4473 ft | 188 kts | 4° |
| 2026-05-07 04:16 | 32.98788 | -97.02724 | 4971 ft | 206 kts | 1° |
| 2026-05-07 04:17 | 33.00260 | -97.02649 | 5594 ft | 220 kts | 359° |
| 2026-05-07 04:17 | 33.01837 | -97.02589 | 6243 ft | 232 kts | 358° |
| 2026-05-07 04:17 | 33.03498 | -97.02552 | 6828 ft | 245 kts | 357° |
| 2026-05-07 04:17 | 33.05225 | -97.02496 | 7555 ft | 253 kts | 1° |
| 2026-05-07 04:18 | 33.06962 | -97.01918 | 8221 ft | 269 kts | 22° |
| 2026-05-07 04:18 | 33.08476 | -97.00557 | 8999 ft | 280 kts | 42° |
| 2026-05-07 04:18 | 33.09579 | -96.98616 | 9620 ft | 294 kts | 66° |
| 2026-05-07 04:18 | 33.10027 | -96.96188 | 10119 ft | 311 kts | 89° |
| 2026-05-07 04:19 | 33.09796 | -96.93565 | 10535 ft | 324 kts | 103° |
| 2026-05-07 04:19 | 33.09352 | -96.90885 | 11124 ft | 334 kts | 106° |
| 2026-05-07 04:19 | 33.08393 | -96.88404 | 11815 ft | 327 kts | 136° |
| 2026-05-07 04:19 | 33.06909 | -96.86349 | 12518 ft | 335 kts | 128° |
| 2026-05-07 04:20 | 33.06120 | -96.83688 | 13209 ft | 350 kts | 101° |
| 2026-05-07 04:20 | 33.05838 | -96.80787 | 13913 ft | 355 kts | 97° |
| 2026-05-07 04:20 | 33.05701 | -96.77812 | 14540 ft | 361 kts | 95° |
| 2026-05-07 04:21 | 33.05298 | -96.71780 | 15793 ft | 369 kts | 101° |
| 2026-05-07 04:21 | 33.04901 | -96.68783 | 16399 ft | 373 kts | 104° |
| 2026-05-07 04:21 | 33.04431 | -96.65724 | 17008 ft | 377 kts | 105° |
| 2026-05-07 04:21 | 33.03948 | -96.62623 | 17606 ft | 381 kts | 105° |
| 2026-05-07 04:22 | 33.03465 | -96.59493 | 18190 ft | 386 kts | 105° |
| 2026-05-07 04:22 | 33.03003 | -96.56324 | 18632 ft | 394 kts | 104° |
| 2026-05-07 04:22 | 33.02547 | -96.53093 | 19184 ft | 395 kts | 104° |
| 2026-05-07 04:22 | 33.02087 | -96.49853 | 19695 ft | 398 kts | 104° |
| 2026-05-07 04:23 | 33.01617 | -96.46586 | 20185 ft | 402 kts | 104° |
| 2026-05-07 04:23 | 33.01141 | -96.43289 | 20671 ft | 406 kts | 105° |
| 2026-05-07 04:23 | 33.00656 | -96.39966 | 21145 ft | 410 kts | 105° |
| 2026-05-07 04:23 | 33.00176 | -96.36647 | 21605 ft | 413 kts | 105° |
| 2026-05-07 04:24 | 32.99830 | -96.33222 | 22031 ft | 423 kts | 91° |
| 2026-05-07 04:24 | 33.00415 | -96.29769 | 22443 ft | 430 kts | 66° |
| 2026-05-07 04:24 | 33.01782 | -96.26597 | 22872 ft | 431 kts | 57° |
| 2026-05-07 04:24 | 33.03260 | -96.23462 | 23298 ft | 436 kts | 59° |
| 2026-05-07 04:25 | 33.04618 | -96.20211 | 23707 ft | 441 kts | 64° |
| 2026-05-07 04:25 | 33.05809 | -96.16830 | 24064 ft | 445 kts | 67° |
| 2026-05-07 04:25 | 33.06949 | -96.13381 | 24409 ft | 448 kts | 67° |
| 2026-05-07 04:25 | 33.08106 | -96.09906 | 24762 ft | 452 kts | 67° |
| 2026-05-07 04:26 | 33.09302 | -96.06424 | 25103 ft | 455 kts | 65° |
| 2026-05-07 04:26 | 33.10533 | -96.02936 | 25440 ft | 458 kts | 66° |
| 2026-05-07 04:26 | 33.11773 | -95.99419 | 25764 ft | 462 kts | 65° |
| 2026-05-07 04:26 | 33.13020 | -95.95876 | 26087 ft | 465 kts | 65° |
| 2026-05-07 04:27 | 33.14277 | -95.92298 | 26391 ft | 468 kts | 66° |
| 2026-05-07 04:27 | 33.15521 | -95.88757 | 26699 ft | 471 kts | 66° |
| 2026-05-07 04:27 | 33.16789 | -95.85138 | 26999 ft | 474 kts | 66° |
| 2026-05-07 04:27 | 33.18063 | -95.81499 | 27324 ft | 477 kts | 66° |
| 2026-05-07 04:28 | 33.19342 | -95.77837 | 27619 ft | 480 kts | 66° |
| 2026-05-07 04:28 | 33.20629 | -95.74141 | 27907 ft | 483 kts | 66° |
| 2026-05-07 04:28 | 33.21919 | -95.70426 | 28196 ft | 486 kts | 66° |
| 2026-05-07 04:28 | 33.23218 | -95.66690 | 28474 ft | 488 kts | 66° |
| 2026-05-07 04:29 | 33.24523 | -95.62931 | 28746 ft | 491 kts | 66° |
| 2026-05-07 04:29 | 33.25837 | -95.59147 | 29013 ft | 494 kts | 66° |
| 2026-05-07 04:29 | 33.27155 | -95.55343 | 29280 ft | 497 kts | 66° |
| 2026-05-07 04:29 | 33.28469 | -95.51547 | 29534 ft | 500 kts | 65° |
| 2026-05-07 04:30 | 33.29800 | -95.47695 | 29776 ft | 502 kts | 65° |
| 2026-05-07 04:30 | 33.31136 | -95.43825 | 30039 ft | 505 kts | 65° |
| 2026-05-07 04:30 | 33.32481 | -95.39930 | 30269 ft | 507 kts | 66° |
| 2026-05-07 04:30 | 33.33825 | -95.36023 | 30483 ft | 509 kts | 66° |
| 2026-05-07 04:31 | 33.35173 | -95.32098 | 30690 ft | 511 kts | 66° |
| 2026-05-07 04:31 | 33.36506 | -95.28211 | 30890 ft | 513 kts | 66° |
| 2026-05-07 04:31 | 33.37866 | -95.24246 | 30998 ft | 518 kts | 66° |
| 2026-05-07 04:31 | 33.39238 | -95.20243 | 31053 ft | 523 kts | 66° |
| 2026-05-07 04:32 | 33.42025 | -95.12085 | 31080 ft | 533 kts | 66° |
| 2026-05-07 04:32 | 33.44843 | -95.03814 | 31086 ft | 539 kts | 66° |
| 2026-05-07 04:33 | 33.47689 | -94.95454 | 31084 ft | 545 kts | 66° |
| 2026-05-07 04:33 | 33.50556 | -94.86998 | 31084 ft | 550 kts | 66° |
| 2026-05-07 04:34 | 33.53445 | -94.78461 | 31078 ft | 555 kts | 66° |
| 2026-05-07 04:34 | 33.56351 | -94.69846 | 31077 ft | 560 kts | 66° |
| 2026-05-07 04:35 | 33.59280 | -94.61147 | 31074 ft | 564 kts | 66° |
| 2026-05-07 04:35 | 33.62194 | -94.52460 | 31076 ft | 567 kts | 66° |
| 2026-05-07 04:36 | 33.65149 | -94.43636 | 31076 ft | 570 kts | 66° |
| 2026-05-07 04:36 | 33.68106 | -94.34770 | 31080 ft | 573 kts | 66° |
| 2026-05-07 04:37 | 33.70571 | -94.27365 | 31080 ft | 575 kts | 66° |
| 2026-05-07 04:37 | 33.74158 | -94.18805 | 31082 ft | 571 kts | 53° |
| 2026-05-07 04:38 | 33.78379 | -94.10687 | 31079 ft | 574 kts | 56° |
| 2026-05-07 04:38 | 33.82304 | -94.02290 | 31080 ft | 576 kts | 57° |
| 2026-05-07 04:39 | 33.86243 | -93.93874 | 31082 ft | 577 kts | 57° |
| 2026-05-07 04:39 | 33.90215 | -93.85530 | 31083 ft | 578 kts | 57° |
| 2026-05-07 04:40 | 33.94205 | -93.77116 | 31080 ft | 579 kts | 57° |
| 2026-05-07 04:40 | 33.96172 | -93.72953 | 31084 ft | 561 kts | 57° |
| 2026-05-07 04:40 | 33.98069 | -93.68949 | 31067 ft | 540 kts | 57° |
| 2026-05-07 04:41 | 33.99899 | -93.65083 | 30704 ft | 527 kts | 57° |
| 2026-05-07 04:41 | 34.01724 | -93.61225 | 29657 ft | 532 kts | 57° |
| 2026-05-07 04:41 | 34.03561 | -93.57323 | 28545 ft | 536 kts | 57° |
| 2026-05-07 04:41 | 34.05483 | -93.53459 | 27477 ft | 536 kts | 53° |
| 2026-05-07 04:42 | 34.07567 | -93.49797 | 26385 ft | 536 kts | 50° |
| 2026-05-07 04:42 | 34.09724 | -93.46132 | 25321 ft | 537 kts | 51° |
| 2026-05-07 04:42 | 34.11839 | -93.42419 | 24287 ft | 537 kts | 52° |
| 2026-05-07 04:42 | 34.13905 | -93.38673 | 23204 ft | 535 kts | 52° |
| 2026-05-07 04:43 | 34.15960 | -93.34960 | 22025 ft | 526 kts | 53° |
| 2026-05-07 04:43 | 34.17972 | -93.31320 | 20891 ft | 516 kts | 53° |
| 2026-05-07 04:43 | 34.19941 | -93.27743 | 19804 ft | 507 kts | 53° |
| 2026-05-07 04:43 | 34.21880 | -93.24229 | 18756 ft | 497 kts | 53° |
| 2026-05-07 04:44 | 34.23781 | -93.20780 | 17644 ft | 487 kts | 53° |
| 2026-05-07 04:44 | 34.25626 | -93.17414 | 16513 ft | 473 kts | 53° |
| 2026-05-07 04:44 | 34.27417 | -93.14163 | 15667 ft | 456 kts | 54° |
| 2026-05-07 04:44 | 34.29141 | -93.11019 | 14874 ft | 440 kts | 54° |
| 2026-05-07 04:45 | 34.30806 | -93.07989 | 14111 ft | 426 kts | 54° |
| 2026-05-07 04:45 | 34.32428 | -93.05032 | 13285 ft | 415 kts | 54° |
| 2026-05-07 04:45 | 34.33986 | -93.02192 | 12472 ft | 405 kts | 54° |
| 2026-05-07 04:45 | 34.35523 | -92.99381 | 11697 ft | 395 kts | 54° |
| 2026-05-07 04:46 | 34.37012 | -92.96661 | 11110 ft | 381 kts | 54° |
| 2026-05-07 04:46 | 34.38453 | -92.94026 | 10537 ft | 369 kts | 54° |
| 2026-05-07 04:46 | 34.39854 | -92.91466 | 9927 ft | 360 kts | 54° |
| 2026-05-07 04:46 | 34.41220 | -92.88958 | 9259 ft | 353 kts | 55° |
| 2026-05-07 04:47 | 34.42472 | -92.86426 | 8506 ft | 349 kts | 58° |
| 2026-05-07 04:47 | 34.43651 | -92.83877 | 7773 ft | 344 kts | 59° |
| 2026-05-07 04:47 | 34.44792 | -92.81369 | 7176 ft | 335 kts | 60° |
| 2026-05-07 04:47 | 34.45902 | -92.78923 | 6588 ft | 328 kts | 60° |
| 2026-05-07 04:48 | 34.46984 | -92.76529 | 5963 ft | 320 kts | 60° |
| 2026-05-07 04:48 | 34.48048 | -92.74198 | 5351 ft | 312 kts | 60° |
| 2026-05-07 04:48 | 34.49097 | -92.71927 | 4770 ft | 304 kts | 60° |
| 2026-05-07 04:48 | 34.50130 | -92.69717 | 4215 ft | 297 kts | 60° |
| 2026-05-07 04:49 | 34.51144 | -92.67570 | 3670 ft | 290 kts | 60° |
| 2026-05-07 04:49 | 34.52139 | -92.65487 | 3300 ft | 279 kts | 60° |
| 2026-05-07 04:49 | 34.53040 | -92.63619 | 3140 ft | 262 kts | 60° |
| 2026-05-07 04:49 | 34.53963 | -92.61708 | 3051 ft | 245 kts | 60° |
| 2026-05-07 04:50 | 34.54785 | -92.59997 | 3045 ft | 233 kts | 60° |
| 2026-05-07 04:50 | 34.55589 | -92.58322 | 3033 ft | 226 kts | 60° |
| 2026-05-07 04:50 | 34.56370 | -92.56691 | 3019 ft | 220 kts | 60° |
| 2026-05-07 04:50 | 34.57132 | -92.55103 | 3002 ft | 215 kts | 59° |
| 2026-05-07 04:51 | 34.57834 | -92.53531 | 2989 ft | 212 kts | 71° |
| 2026-05-07 04:51 | 34.57898 | -92.51759 | 2995 ft | 213 kts | 103° |
| 2026-05-07 04:51 | 34.57668 | -92.49956 | 3006 ft | 220 kts | 104° |
| 2026-05-07 04:51 | 34.57445 | -92.48096 | 3014 ft | 226 kts | 103° |
| 2026-05-07 04:52 | 34.57218 | -92.46192 | 3026 ft | 229 kts | 103° |
| 2026-05-07 04:52 | 34.56989 | -92.44263 | 3018 ft | 232 kts | 103° |
| 2026-05-07 04:52 | 34.56801 | -92.42303 | 2998 ft | 234 kts | 93° |
| 2026-05-07 04:52 | 34.57265 | -92.40465 | 2977 ft | 225 kts | 57° |
| 2026-05-07 04:53 | 34.58402 | -92.39261 | 2993 ft | 213 kts | 22° |
| 2026-05-07 04:53 | 34.59710 | -92.38503 | 3024 ft | 206 kts | 23° |
| 2026-05-07 04:53 | 34.60760 | -92.37321 | 2985 ft | 206 kts | 51° |
| 2026-05-07 04:53 | 34.61641 | -92.35967 | 3009 ft | 203 kts | 50° |
| 2026-05-07 04:54 | 34.62755 | -92.34989 | 3002 ft | 196 kts | 20° |
| 2026-05-07 04:54 | 34.63925 | -92.34127 | 2984 ft | 200 kts | 43° |
| 2026-05-07 04:54 | 34.64661 | -92.32774 | 2994 ft | 190 kts | 59° |
| 2026-05-07 04:54 | 34.65311 | -92.31430 | 2841 ft | 179 kts | 60° |
| 2026-05-07 04:55 | 34.65979 | -92.30195 | 2461 ft | 170 kts | 55° |
| 2026-05-07 04:55 | 34.66678 | -92.29055 | 2104 ft | 166 kts | 54° |
| 2026-05-07 04:55 | 34.67379 | -92.27986 | 1780 ft | 156 kts | 50° |
| 2026-05-07 04:55 | 34.68106 | -92.27022 | 1616 ft | 152 kts | 45° |
| 2026-05-07 04:56 | 34.68830 | -92.26108 | 1414 ft | 148 kts | 46° |
| 2026-05-07 04:56 | 34.69539 | -92.25198 | 1102 ft | 149 kts | 44° |
| 2026-05-07 04:56 | 34.70245 | -92.24312 | 876 ft | 143 kts | 47° |
| 2026-05-07 04:56 | 34.70901 | -92.23457 | 654 ft | 134 kts | 46° |
| 2026-05-07 04:57 | 34.71511 | -92.22671 | 448 ft | 124 kts | 45° |
| 2026-05-07 04:57 | 34.72104 | -92.21913 | 291 ft | 118 kts | 46° |
| 2026-05-07 04:57 | 34.72566 | -92.21319 | 257 ft | 77 kts | 46° |
| 2026-05-07 04:57 | 34.72852 | -92.20952 | 254 ft | 49 kts | 46° |
| 2026-05-07 04:58 | 34.73071 | -92.20677 | 258 ft | 40 kts | 46° |
| 2026-05-07 04:58 | 34.73251 | -92.20510 | 258 ft | 26 kts | 25° |
| 2026-05-07 04:58 | 34.73372 | -92.20501 | 257 ft | 15 kts | 302° |
| 2026-05-07 04:58 | 34.73336 | -92.20596 | 259 ft | 14 kts | 227° |
| 2026-05-07 04:59 | 34.73265 | -92.20686 | 257 ft | 16 kts | 226° |
| 2026-05-07 04:59 | 34.73185 | -92.20787 | 257 ft | 17 kts | 226° |
| 2026-05-07 04:59 | 34.73098 | -92.20898 | 255 ft | 20 kts | 227° |
| 2026-05-07 04:59 | 34.72998 | -92.21027 | 254 ft | 21 kts | 226° |
| 2026-05-07 05:00 | 34.72898 | -92.21157 | 254 ft | 16 kts | 243° |
| 2026-05-07 05:00 | 34.72921 | -92.21287 | 255 ft | 16 kts | 294° |
| 2026-05-07 05:00 | 34.72967 | -92.21409 | 258 ft | 15 kts | 294° |
| 2026-05-07 05:00 | 34.73006 | -92.21516 | 263 ft | 13 kts | 294° |
| 2026-05-07 05:01 | 34.73039 | -92.21607 | 266 ft | 11 kts | 294° |
| 2026-05-07 05:01 | 34.73071 | -92.21693 | 268 ft | 11 kts | 295° |
| 2026-05-07 05:01 | 34.73099 | -92.21771 | 265 ft | 4 kts | 278° |
| 2026-05-07 05:01 | 34.73093 | -92.21783 | 265 ft | 1 kts | 202° |
| 2026-05-07 05:02 | 34.73081 | -92.21787 | 265 ft | 3 kts | 197° |
| 2026-05-07 05:02 | 34.73054 | -92.21800 | 265 ft | 5 kts | 208° |
| 2026-05-07 05:02 | 34.73019 | -92.21828 | 265 ft | 7 kts | 215° |
| 2026-05-07 05:02 | 34.73000 | -92.21844 | 264 ft | 2 kts | 215° |